Manchester Center, Vermont
Current Conditions -  °F | °C
As of 12:12 AM on Monday 22 Dec 2014 (Local Time) from KDDH Reporting Station
Haze Haze  
Wind Chill: 28°   Ceiling: 4000
Heat Index: 28°   Visibility: 5mi
Dew Point: 25°   Wind: 0mph
Humidity: 88%   Direction: NA
Pressure: 30.32"   Gusts: NA
Location:  43.18°N, 73.04°W
Report Text: KDDH 220512Z AUTO 00000KT 5SM BR SCT017 OVC040 M02/M04 A3032 RMK AO2 T10221039
Loading
Personal Weather Stations






























Interactive Weather Map New forecast layout! Learn more

10-Day Weather Forecast

Advertisements
Track Severe Weather on mobile